createdAt,value
2023-05-17T00:02:20.162Z,10.43
2023-05-17T00:04:51.273Z,10.70
2023-05-17T00:07:26.611Z,10.77
2023-05-17T00:10:04.072Z,10.07
2023-05-17T00:12:50.207Z,9.20
2023-05-17T00:15:25.569Z,8.85
2023-05-17T00:18:03.097Z,7.20
2023-05-17T00:20:41.246Z,7.25
2023-05-17T00:23:19.815Z,6.97
2023-05-17T00:26:08.969Z,6.03
2023-05-17T00:28:41.314Z,5.38
2023-05-17T00:31:31.916Z,7.97
2023-05-17T00:34:06.308Z,8.90
2023-05-17T00:36:47.297Z,7.65
2023-05-17T00:39:24.876Z,7.13
2023-05-17T00:42:06.583Z,6.28
2023-05-17T00:44:42.394Z,6.40
2023-05-17T00:47:46.099Z,6.15
2023-05-17T00:50:16.801Z,4.93
2023-05-17T00:53:09.444Z,5.65
2023-05-17T00:55:54.000Z,5.03
2023-05-17T00:58:34.427Z,4.60
2023-05-17T01:01:02.281Z,4.38
2023-05-17T01:03:29.690Z,4.55
2023-05-17T01:05:59.915Z,4.55
2023-05-17T01:08:27.740Z,4.68
2023-05-17T01:11:24.791Z,4.57
2023-05-17T01:14:34.985Z,4.72
2023-05-17T01:17:17.751Z,4.30
2023-05-17T01:19:59.028Z,5.60
2023-05-17T01:23:17.892Z,5.47
2023-05-17T01:26:41.507Z,5.43
2023-05-17T01:29:20.032Z,5.07
2023-05-17T01:31:52.166Z,5.32
2023-05-17T01:34:30.798Z,7.75
2023-05-17T01:37:06.526Z,6.03
2023-05-17T01:39:42.037Z,5.95
2023-05-17T01:42:41.590Z,5.03
2023-05-17T01:45:11.755Z,5.70
2023-05-17T01:48:18.013Z,5.15
2023-05-17T01:50:56.397Z,5.90
2023-05-17T01:53:39.470Z,5.25
2023-05-17T01:56:15.353Z,5.68
2023-05-17T01:58:47.785Z,5.95
2023-05-17T02:01:21.562Z,5.50
2023-05-17T02:04:06.245Z,5.72
2023-05-17T02:06:59.692Z,5.53
2023-05-17T02:09:33.903Z,5.30
2023-05-17T02:12:07.747Z,5.25
2023-05-17T02:14:41.420Z,5.50
2023-05-17T02:17:19.440Z,5.07
2023-05-17T02:19:54.636Z,5.63
2023-05-17T02:22:24.788Z,4.18
2023-05-17T02:24:55.375Z,4.30
2023-05-17T02:27:34.151Z,4.32
2023-05-17T02:30:07.158Z,3.75
2023-05-17T02:32:37.970Z,4.18
2023-05-17T02:35:10.511Z,4.68
2023-05-17T02:37:43.303Z,4.22
2023-05-17T02:40:21.484Z,4.07
2023-05-17T02:42:49.030Z,4.03
2023-05-17T02:45:18.656Z,3.80
2023-05-17T02:47:52.042Z,4.32
2023-05-17T02:50:22.725Z,4.15
2023-05-17T02:52:56.019Z,3.72
2023-05-17T02:55:29.522Z,4.10
2023-05-17T02:58:09.975Z,3.95
2023-05-17T03:03:21.481Z,3.97
2023-05-17T03:05:49.021Z,3.60
2023-05-17T03:08:19.056Z,3.80
2023-05-17T03:10:47.687Z,4.00
2023-05-17T03:13:15.028Z,4.32
2023-05-17T03:15:42.381Z,3.47
2023-05-17T03:18:11.273Z,3.67
2023-05-17T03:20:40.088Z,4.10
2023-05-17T03:23:12.796Z,3.95
2023-05-17T03:25:57.992Z,4.32
2023-05-17T03:28:27.087Z,3.72
2023-05-17T03:30:54.745Z,4.00
2023-05-17T03:33:22.470Z,4.10
2023-05-17T03:35:49.695Z,3.22
2023-05-17T03:38:19.001Z,4.28
2023-05-17T03:40:46.255Z,4.38
2023-05-17T03:43:13.588Z,5.05
2023-05-17T03:45:49.431Z,4.35
2023-05-17T03:48:19.964Z,4.38
2023-05-17T03:50:50.267Z,3.90
2023-05-17T03:53:18.215Z,4.15
2023-05-17T03:55:47.533Z,4.38
2023-05-17T03:58:16.235Z,4.50
2023-05-17T04:00:55.052Z,4.18
2023-05-17T04:03:24.306Z,4.25
2023-05-17T04:05:51.427Z,4.50
2023-05-17T04:08:18.785Z,4.60
2023-05-17T04:10:46.084Z,4.20
2023-05-17T04:13:15.627Z,4.38
2023-05-17T04:15:45.309Z,4.40
2023-05-17T04:18:13.127Z,4.50
2023-05-17T04:20:41.382Z,4.40
2023-05-17T04:23:09.336Z,4.28
2023-05-17T04:25:40.192Z,3.83
2023-05-17T04:28:09.273Z,3.85
2023-05-17T04:33:25.227Z,3.22
2023-05-17T04:35:57.736Z,2.83
2023-05-17T04:38:26.977Z,3.20
2023-05-17T04:41:05.156Z,3.08
2023-05-17T04:43:37.757Z,2.90
2023-05-17T04:46:14.749Z,3.00
2023-05-17T04:48:47.716Z,2.97
2023-05-17T04:51:15.350Z,3.25
2023-05-17T04:53:42.845Z,3.10
2023-05-17T04:56:22.438Z,2.92
2023-05-17T04:58:53.278Z,2.80
2023-05-17T05:01:24.117Z,2.92
2023-05-17T05:03:54.584Z,2.75
2023-05-17T05:06:25.293Z,3.22
2023-05-17T05:08:52.875Z,2.97
2023-05-17T05:11:22.784Z,3.03
2023-05-17T05:13:50.436Z,3.80
2023-05-17T05:16:20.697Z,3.00
2023-05-17T05:18:59.224Z,3.60
2023-05-17T05:21:28.777Z,2.63
2023-05-17T05:23:56.568Z,2.42
2023-05-17T05:26:28.812Z,2.60
2023-05-17T05:28:58.359Z,2.55
2023-05-17T05:31:25.734Z,2.42
2023-05-17T05:34:02.765Z,2.78
2023-05-17T05:36:37.705Z,2.40
2023-05-17T05:39:05.554Z,2.70
2023-05-17T05:41:34.780Z,2.30
2023-05-17T05:44:01.892Z,2.83
2023-05-17T05:46:38.152Z,2.17
2023-05-17T05:49:09.934Z,2.28
2023-05-17T05:51:47.705Z,2.03
2023-05-17T05:54:25.944Z,2.08
2023-05-17T05:57:03.456Z,1.95
2023-05-17T05:59:33.904Z,2.08
2023-05-17T06:02:31.993Z,2.38
2023-05-17T06:05:09.443Z,2.47
2023-05-17T06:10:29.684Z,2.80
2023-05-17T06:13:04.904Z,2.63
2023-05-17T06:15:37.672Z,2.63
2023-05-17T06:18:12.078Z,2.50
2023-05-17T06:20:58.922Z,2.08
2023-05-17T06:23:31.188Z,2.15
2023-05-17T06:26:10.045Z,1.85
2023-05-17T06:28:50.340Z,2.15
2023-05-17T06:31:38.048Z,2.45
2023-05-17T06:34:10.309Z,1.67
2023-05-17T06:36:57.114Z,1.83
2023-05-17T06:39:34.715Z,2.08
2023-05-17T06:42:18.451Z,2.17
2023-05-17T06:44:55.876Z,2.05
2023-05-17T06:47:33.417Z,2.25
2023-05-17T06:50:16.271Z,1.70
2023-05-17T06:53:34.507Z,2.67
2023-05-17T06:56:19.190Z,1.83
2023-05-17T06:59:04.829Z,2.47
2023-05-17T07:01:38.061Z,1.88
2023-05-17T07:04:37.028Z,1.92
2023-05-17T07:07:22.215Z,2.50
2023-05-17T07:10:02.822Z,1.80
2023-05-17T07:12:36.918Z,1.98
2023-05-17T07:15:14.697Z,1.90
2023-05-17T07:18:03.811Z,1.65
2023-05-17T07:20:41.236Z,2.25
2023-05-17T07:23:20.940Z,2.10
2023-05-17T07:29:04.290Z,2.15
2023-05-17T07:31:43.477Z,1.63
2023-05-17T07:34:14.528Z,2.13
2023-05-17T07:36:56.855Z,1.98
2023-05-17T07:39:25.370Z,1.80
2023-05-17T07:42:05.626Z,2.22
2023-05-17T07:47:17.321Z,2.22
2023-05-17T07:50:02.212Z,1.95
2023-05-17T07:52:37.802Z,2.30
2023-05-17T07:55:16.774Z,1.77
2023-05-17T07:57:48.870Z,2.50
2023-05-17T08:00:19.479Z,2.10
2023-05-17T08:03:00.408Z,1.92
2023-05-17T08:05:30.774Z,1.42
2023-05-17T08:08:01.827Z,1.70
2023-05-17T08:10:32.896Z,2.22
2023-05-17T08:13:05.341Z,2.17
2023-05-17T08:15:58.490Z,1.88
2023-05-17T08:18:57.966Z,2.63
2023-05-17T08:22:04.350Z,2.22
2023-05-17T08:24:40.019Z,2.40
2023-05-17T08:27:16.347Z,3.38
2023-05-17T08:29:58.194Z,7.60
2023-05-17T08:32:36.726Z,2.58
2023-05-17T08:35:19.143Z,2.20
2023-05-17T08:38:12.192Z,1.85
2023-05-17T08:41:03.550Z,1.70
2023-05-17T08:43:38.604Z,1.55
2023-05-17T08:46:21.960Z,2.92
2023-05-17T08:49:07.400Z,2.30
2023-05-17T08:52:10.289Z,2.22
2023-05-17T08:55:16.042Z,2.03
2023-05-17T08:58:18.612Z,2.28
2023-05-17T09:00:52.392Z,2.63
2023-05-17T09:03:55.941Z,2.75
2023-05-17T09:07:20.022Z,2.78
2023-05-17T09:09:54.748Z,2.40
2023-05-17T09:12:25.561Z,2.90
2023-05-17T09:14:53.297Z,2.47
2023-05-17T09:17:24.837Z,2.63
2023-05-17T09:20:04.749Z,2.47
2023-05-17T09:22:40.780Z,2.63
2023-05-17T09:25:09.013Z,2.80
2023-05-17T09:27:36.537Z,2.75
2023-05-17T09:30:13.397Z,3.03
2023-05-17T09:32:55.900Z,2.90
2023-05-17T09:35:36.909Z,2.45
2023-05-17T09:38:26.009Z,3.33
2023-05-17T09:41:07.036Z,2.75
2023-05-17T09:43:54.413Z,2.50
2023-05-17T09:46:57.756Z,2.70
2023-05-17T09:49:38.962Z,2.47
2023-05-17T09:52:22.090Z,2.10
2023-05-17T09:54:59.683Z,2.60
2023-05-17T09:57:40.214Z,2.30
2023-05-17T10:00:37.363Z,2.03
2023-05-17T10:03:28.071Z,1.98
2023-05-17T10:06:23.750Z,2.63
2023-05-17T10:09:22.566Z,2.50
2023-05-17T10:11:59.819Z,2.25
2023-05-17T10:14:48.947Z,2.22
2023-05-17T10:17:29.231Z,2.20
2023-05-17T10:20:24.702Z,2.42
2023-05-17T10:23:11.085Z,2.42
2023-05-17T10:25:51.092Z,2.58
2023-05-17T10:28:39.836Z,2.22
2023-05-17T10:31:39.209Z,2.42
2023-05-17T10:34:23.302Z,2.30
2023-05-17T10:36:59.071Z,3.17
2023-05-17T10:39:59.383Z,2.47
2023-05-17T10:42:32.402Z,2.70
2023-05-17T10:45:11.908Z,2.88
2023-05-17T10:47:49.511Z,2.42
2023-05-17T10:50:25.552Z,2.45
2023-05-17T10:52:59.350Z,2.45
2023-05-17T10:56:06.179Z,2.58
2023-05-17T10:58:40.345Z,1.98
2023-05-17T11:01:11.534Z,2.30
2023-05-17T11:03:50.509Z,2.10
2023-05-17T11:06:24.074Z,2.15
2023-05-17T11:09:26.695Z,2.53
2023-05-17T11:12:09.484Z,2.10
2023-05-17T11:15:20.813Z,2.08
2023-05-17T11:17:57.322Z,2.17
2023-05-17T11:20:40.142Z,2.78
2023-05-17T11:23:37.939Z,2.00
2023-05-17T11:26:25.103Z,2.55
2023-05-17T11:32:19.281Z,2.30
2023-05-17T11:35:02.901Z,2.28
2023-05-17T11:37:38.644Z,1.98
2023-05-17T11:40:13.810Z,2.20
2023-05-17T11:42:54.028Z,2.45
2023-05-17T11:45:42.183Z,2.90
2023-05-17T11:48:20.628Z,3.00
2023-05-17T11:51:08.766Z,2.30
2023-05-17T11:53:56.954Z,2.15
2023-05-17T11:56:42.271Z,2.40
2023-05-17T11:59:29.437Z,2.00
2023-05-17T12:02:09.083Z,2.17
2023-05-17T12:04:51.247Z,2.42
2023-05-17T12:07:33.014Z,2.17
2023-05-17T12:10:01.915Z,2.38
2023-05-17T12:12:32.690Z,2.42
2023-05-17T12:15:13.355Z,1.70
2023-05-17T12:18:17.518Z,2.33
2023-05-17T12:21:02.113Z,2.05
2023-05-17T12:23:50.304Z,3.03
2023-05-17T12:26:30.968Z,2.10
2023-05-17T12:29:03.806Z,2.55
2023-05-17T12:31:40.982Z,2.85
2023-05-17T12:34:46.399Z,2.70
2023-05-17T12:37:22.200Z,2.17
2023-05-17T12:40:03.900Z,2.50
2023-05-17T12:42:44.620Z,2.40
2023-05-17T12:45:31.800Z,2.10
2023-05-17T12:48:27.198Z,2.17
2023-05-17T12:51:05.813Z,2.28
2023-05-17T12:54:03.965Z,2.47
2023-05-17T12:56:57.103Z,1.88
2023-05-17T12:59:38.923Z,1.63
2023-05-17T13:02:16.276Z,1.80
2023-05-17T13:05:22.405Z,2.10
2023-05-17T13:08:24.813Z,1.95
2023-05-17T13:13:44.411Z,1.58
2023-05-17T13:16:17.545Z,2.05
2023-05-17T13:19:20.712Z,2.03
2023-05-17T13:21:55.190Z,1.80
2023-05-17T13:24:45.518Z,1.92
2023-05-17T13:27:21.549Z,2.03
2023-05-17T13:30:15.818Z,1.92
2023-05-17T13:33:25.513Z,2.70
2023-05-17T13:35:57.996Z,2.40
2023-05-17T13:38:31.806Z,2.10
2023-05-17T13:41:09.603Z,2.13
2023-05-17T13:44:02.494Z,1.95
2023-05-17T13:46:51.834Z,2.10
2023-05-17T13:49:22.802Z,2.15
2023-05-17T13:52:08.811Z,2.25
2023-05-17T13:54:40.778Z,2.38
2023-05-17T13:57:17.639Z,2.17
2023-05-17T14:00:03.123Z,2.22
2023-05-17T14:02:45.699Z,1.85
2023-05-17T14:05:15.329Z,1.90
2023-05-17T14:07:46.946Z,2.35
2023-05-17T14:10:16.091Z,1.90
2023-05-17T14:13:17.269Z,1.67
2023-05-17T14:15:57.714Z,2.08
2023-05-17T14:21:21.706Z,2.00
2023-05-17T14:23:56.294Z,2.03
2023-05-17T14:26:46.105Z,1.88
2023-05-17T14:29:19.398Z,2.53
2023-05-17T14:31:58.228Z,1.95
2023-05-17T14:34:55.556Z,1.98
2023-05-17T14:38:03.362Z,2.00
2023-05-17T14:40:48.498Z,2.15
2023-05-17T14:43:25.759Z,2.00
2023-05-17T14:46:11.685Z,2.17
2023-05-17T14:49:05.717Z,2.25
2023-05-17T14:51:46.078Z,2.45
2023-05-17T14:55:04.459Z,1.85
2023-05-17T14:57:34.901Z,1.90
2023-05-17T15:00:18.629Z,1.95
2023-05-17T15:03:21.792Z,1.90
2023-05-17T15:06:12.012Z,1.52
2023-05-17T15:08:55.235Z,2.05
2023-05-17T15:11:30.264Z,2.38
2023-05-17T15:14:14.568Z,2.00
2023-05-17T15:16:52.957Z,2.58
2023-05-17T15:19:38.509Z,2.22
2023-05-17T15:22:13.669Z,2.42
2023-05-17T15:25:00.200Z,2.50
2023-05-17T15:30:37.961Z,2.85
2023-05-17T15:33:43.042Z,2.58
2023-05-17T15:36:25.981Z,2.50
2023-05-17T15:39:09.445Z,3.08
2023-05-17T15:41:45.760Z,3.45
2023-05-17T15:44:19.178Z,3.00
2023-05-17T15:47:03.197Z,3.22
2023-05-17T15:49:41.520Z,4.03
2023-05-17T15:52:24.842Z,2.80
2023-05-17T15:55:07.711Z,3.45
2023-05-17T15:58:00.597Z,3.65
2023-05-17T16:00:55.266Z,2.75
2023-05-17T16:03:30.529Z,3.13
2023-05-17T16:09:34.866Z,2.95
2023-05-17T16:12:22.406Z,2.97
2023-05-17T16:15:28.620Z,3.08
2023-05-17T16:18:22.294Z,3.13
2023-05-17T16:21:24.078Z,3.45
2023-05-17T16:24:26.778Z,2.88
2023-05-17T16:27:08.135Z,2.67
2023-05-17T16:29:47.226Z,3.65
2023-05-17T16:32:29.847Z,3.53
2023-05-17T16:35:48.060Z,3.35
2023-05-17T16:38:34.659Z,3.15
2023-05-17T16:41:28.841Z,3.20
2023-05-17T16:47:02.928Z,4.80
2023-05-17T16:49:52.329Z,2.97
2023-05-17T16:55:47.087Z,3.33
2023-05-17T16:58:32.253Z,3.33
2023-05-17T17:01:28.322Z,3.35
2023-05-17T17:04:01.254Z,3.35
2023-05-17T17:06:45.218Z,2.90
2023-05-17T17:09:42.031Z,3.08
2023-05-17T17:12:47.329Z,2.67
2023-05-17T17:15:39.408Z,2.70
2023-05-17T17:18:32.016Z,2.47
2023-05-17T17:21:26.172Z,3.45
2023-05-17T17:24:25.887Z,2.90
2023-05-17T17:27:18.703Z,2.63
2023-05-17T17:30:00.210Z,3.00
2023-05-17T17:32:57.859Z,2.65
2023-05-17T17:35:56.054Z,2.65
2023-05-17T17:38:41.922Z,2.30
2023-05-17T17:41:18.093Z,2.45
2023-05-17T17:44:02.893Z,2.53
2023-05-17T17:46:43.731Z,2.42
2023-05-17T17:49:33.826Z,2.38
2023-05-17T17:52:08.312Z,2.50
2023-05-17T17:54:50.984Z,2.58
2023-05-17T17:57:34.143Z,2.63
2023-05-17T18:00:23.381Z,2.30
2023-05-17T18:03:18.694Z,2.10
2023-05-17T18:05:58.304Z,2.70
2023-05-17T18:09:36.170Z,2.40
2023-05-17T18:12:13.664Z,2.50
2023-05-17T18:15:06.835Z,2.33
2023-05-17T18:18:06.030Z,2.40
2023-05-17T18:20:45.708Z,2.78
2023-05-17T18:23:26.517Z,2.75
2023-05-17T18:26:11.393Z,2.20
2023-05-17T18:29:07.624Z,3.08
2023-05-17T18:31:52.285Z,2.92
2023-05-17T18:34:28.835Z,3.25
2023-05-17T18:37:06.099Z,2.22
2023-05-17T18:40:02.030Z,2.70
2023-05-17T18:42:38.213Z,2.78
2023-05-17T18:45:32.074Z,2.40
2023-05-17T18:48:18.315Z,2.22
2023-05-17T18:51:11.874Z,2.97
2023-05-17T18:53:56.279Z,3.65
2023-05-17T18:56:47.116Z,2.72
2023-05-17T18:59:28.388Z,3.05
2023-05-17T19:02:12.624Z,2.80
2023-05-17T19:04:54.844Z,2.88
2023-05-17T19:10:37.876Z,2.50
2023-05-17T19:13:11.226Z,2.97
2023-05-17T19:15:47.473Z,2.80
2023-05-17T19:18:31.170Z,3.05
2023-05-17T19:21:15.835Z,3.10
2023-05-17T19:24:18.112Z,3.13
2023-05-17T19:27:11.087Z,2.40
2023-05-17T19:29:43.565Z,3.00
2023-05-17T19:32:20.919Z,3.20
2023-05-17T19:34:51.489Z,2.38
2023-05-17T19:37:26.923Z,3.53
2023-05-17T19:40:00.537Z,3.08
2023-05-17T19:44:58.601Z,2.92
2023-05-17T19:47:30.109Z,3.28
2023-05-17T19:50:04.343Z,3.55
2023-05-17T19:52:40.556Z,2.92
2023-05-17T19:55:33.261Z,2.90
2023-05-17T19:58:11.155Z,3.20
2023-05-17T20:00:41.541Z,3.80
2023-05-17T20:03:12.149Z,3.58
2023-05-17T20:05:47.280Z,3.65
2023-05-17T20:08:16.181Z,4.03
2023-05-17T20:10:46.918Z,3.70
2023-05-17T20:13:16.889Z,3.50
2023-05-17T20:15:51.424Z,3.15
2023-05-17T20:18:22.733Z,3.17
2023-05-17T20:21:04.604Z,3.60
2023-05-17T20:23:33.078Z,3.85
2023-05-17T20:26:09.612Z,3.67
2023-05-17T20:28:46.823Z,3.85
2023-05-17T20:31:22.056Z,4.20
2023-05-17T20:33:56.769Z,3.80
2023-05-17T20:36:43.518Z,3.45
2023-05-17T20:39:11.240Z,4.82
2023-05-17T20:41:38.659Z,3.45
2023-05-17T20:44:08.001Z,3.60
2023-05-17T20:46:35.627Z,4.68
2023-05-17T20:49:05.967Z,3.50
2023-05-17T20:51:33.729Z,3.08
2023-05-17T20:54:00.945Z,3.03
2023-05-17T20:56:31.711Z,3.78
2023-05-17T20:59:07.396Z,2.83
2023-05-17T21:01:44.214Z,3.47
2023-05-17T21:04:14.537Z,2.90
2023-05-17T21:06:44.652Z,3.13
2023-05-17T21:09:14.579Z,3.38
2023-05-17T21:12:01.615Z,3.15
2023-05-17T21:14:31.316Z,3.63
2023-05-17T21:16:58.535Z,3.45
2023-05-17T21:19:25.637Z,3.33
2023-05-17T21:21:53.393Z,3.50
2023-05-17T21:24:22.975Z,3.90
2023-05-17T21:26:50.070Z,3.72
2023-05-17T21:29:20.040Z,3.17
2023-05-17T21:31:50.292Z,3.70
2023-05-17T21:34:17.560Z,2.90
2023-05-17T21:36:44.881Z,3.45
2023-05-17T21:39:12.186Z,2.67
2023-05-17T21:41:39.352Z,3.60
2023-05-17T21:44:10.207Z,3.42
2023-05-17T21:46:39.781Z,3.05
2023-05-17T21:49:09.384Z,3.58
2023-05-17T21:51:36.584Z,2.92
2023-05-17T21:54:11.761Z,3.03
2023-05-17T21:56:43.897Z,3.53
2023-05-17T21:59:11.347Z,3.83
2023-05-17T22:01:38.641Z,3.30
2023-05-17T22:04:09.475Z,3.78
2023-05-17T22:06:39.469Z,3.35
2023-05-17T22:09:10.000Z,3.50
2023-05-17T22:11:38.769Z,3.38
2023-05-17T22:14:07.680Z,3.88
2023-05-17T22:16:36.413Z,4.60
2023-05-17T22:19:04.127Z,3.85
2023-05-17T22:21:32.255Z,3.55
2023-05-17T22:24:02.506Z,4.07
2023-05-17T22:26:29.696Z,4.18
2023-05-17T22:28:56.952Z,2.85
2023-05-17T22:31:26.574Z,3.42
2023-05-17T22:33:56.148Z,3.22
2023-05-17T22:36:25.174Z,3.05
2023-05-17T22:38:52.478Z,3.78
2023-05-17T22:41:22.446Z,3.20
2023-05-17T22:43:52.542Z,3.25
2023-05-17T22:46:20.323Z,3.97
2023-05-17T22:48:52.981Z,3.28
2023-05-17T22:51:30.223Z,3.30
2023-05-17T22:53:58.084Z,3.42
2023-05-17T22:56:25.170Z,3.17
2023-05-17T22:58:52.353Z,3.45
2023-05-17T23:01:19.516Z,3.30
2023-05-17T23:03:46.721Z,3.58
2023-05-17T23:06:14.078Z,3.00
2023-05-17T23:08:42.349Z,3.80
2023-05-17T23:11:09.498Z,3.60
2023-05-17T23:13:36.644Z,3.22
2023-05-17T23:16:04.536Z,3.58
2023-05-17T23:18:31.795Z,3.22
2023-05-17T23:21:00.411Z,3.67
2023-05-17T23:23:30.146Z,4.05
2023-05-17T23:25:57.610Z,4.47
2023-05-17T23:28:25.285Z,3.53
2023-05-17T23:30:53.994Z,3.72
2023-05-17T23:33:21.127Z,3.38
2023-05-17T23:35:48.360Z,4.07
2023-05-17T23:38:15.926Z,4.00
2023-05-17T23:40:43.935Z,4.07
2023-05-17T23:43:10.986Z,3.33
2023-05-17T23:45:38.156Z,3.40
2023-05-17T23:48:05.303Z,3.83
2023-05-17T23:50:32.611Z,3.92
2023-05-17T23:53:03.885Z,4.00
2023-05-17T23:55:31.474Z,4.10
2023-05-17T23:57:58.645Z,4.25
